Terminal Aerodrome Forecast
Issued by NWS Wilmington, OH

Current Version | Previous Version | Graphics & Text | Print | Product List | Glossary On
Versions: 1 2 3 4 5 6 7 8 9 10 11 12 13 14 15 16 17 18
884
FTUS41 KILN 260544
TAFDAY
TAF
KDAY 260544Z 2606/2706 15008KT P6SM SCT250
     FM261300 17010KT P6SM FEW250
     FM261700 18015G25KT P6SM FEW250
     FM270000 18012G18KT P6SM FEW250
     FM270300 16012G18KT P6SM FEW250 WS020/18045KT=

USA.gov is the U.S. government's official web portal to all federal, state and local government web resources and services.